Startpagina
METAR-TAF:

METAR-TAF

Vliegvelden :

Vliegbasis Ramstein

Ramstein, Duitsland

breedte: 49-26N, lengte: 007-36E, hoogte: 238 m

Actueel weer

Dit bericht is 14 minuten geleden gemaakt, om 04:56 UTC
Weinig wind
Temperatuur -9°C
Vochtigheid 100%
Druk 1025 hPa
Zicht 10 km of meer
Onbewolkt

METAR: ETAR 070456Z AUTO 00000KT 9999 CLR M09/M09 A3026 RMK AO2 SLP267 T10911093 FZRANO $

Tijdstip: 06:10 (05:10 UTC)

Verwachting

Dit bericht is 11 uur en het 10 minuten geleden gemaakt, om 18:00 UTC
Verwachting geldig van 06 om 18 UTC tot 07 om 24 UTC
Wind 6 kt uit variabele richting
Zicht 10 km of meer
Onbewolkt
Wijzigt naar
van 07 om 09 UTC tot 07 om 10 UTC
Wind 9 kt uit het noordoosten
Zicht 10 km of meer
Onbewolkt
Wijzigt naar
van 07 om 21 UTC tot 07 om 22 UTC
Wind 5 kt uit variabele richting
Zicht: 8000 m
Onbewolkt
nevel

TAF: ETAR 061800Z 0618/0724 VRB06KT 9999 SKC QNH3024INS BECMG 0709/0710 05009KT 9999 SKC QNH3015INS BECMG 0721/0722 VRB05KT 8000 BR SKC QNH3018INS TX08/0714Z TNM09/0703Z

Waarnemingen en weersverwachtingen van meer dan 4000 vliegvelden (METAR en TAF).

De beschikbare stations zijn de gele en rode punten op de kaart.

Ga met uw muis naar het station om de naam te zien.

Klik dan om waarnemingen en weersverwachtingen te zien.

kaart wijzigen: klik op de groene knoppen met een zwart kruis om in te zoomen, op de groene knop met een streepje om uit te zoomen of op de groene pijlen voor aangrenzende kaarten.


METAR-TAF: